x

Stennis Test Facility (ostf1) Weather Station

4:50pm - Fri 1st Jul 2016 All times are CDT. -5 hours from GMT.

  • Wind
    4mph, 9mph gusts
  • Air Temp 94°f
  • Sea Pressure 1015.3mb
  • Stennis Test Facility
  • Stennis Test Facility

More Historic Weather Station data

Upgrade to MSW Pro to gain access to the past 30 days of data for over 8000 Wavebouys and Weather Stations around the globe.

Join Pro

Comparision Forecast

View Surf forecast
   
Fri 07/01 4:50pm 4 9 mph 1015.3mb 94f
3:50pm 2 4 mph 1015.3mb 95f
2:50pm 4 9 mph 1015.6mb 93f
1:50pm 4 9 mph 1016mb 92f
12:50pm 4 11 mph 1016.7mb 91f
11:50am 4 9 mph 1017mb 89f
10:50am 4 7 mph 1017.2mb 87f
9:50am 4 7 mph 1016.9mb 85f
8:50am 4 7 mph 1016.7mb 82f
7:50am  -  mph 1016.3mb 76f
6:50am  -  mph 1015.8mb 72f
5:50am  -  mph 1015.4mb 72f
4:50am  -  2 mph 1015mb 72f
3:50am  -  mph 1015mb 73f
2:50am  -  mph 1014.6mb 74f
1:50am  -  mph 1014.8mb 74f
12:50am  -  mph 1014.8mb 75f
Thu 06/30 11:50pm  -  mph 1014.5mb 76f
10:50pm  -  mph 1014.4mb 77f
9:50pm  -  mph 1014.4mb 78f
8:50pm  -  2 mph 1014mb 79f
6:50pm 2 4 mph 1014.1mb 80f
5:50pm 4 16 mph 1014mb 85f
4:50pm 7 11 mph 1013.4mb 87f
3:50pm 7 11 mph 1013.8mb 87f
2:50pm 4 9 mph 1013.7mb 89f
1:50pm 4 9 mph 1014.2mb 89f
12:50pm 4 9 mph 1014.5mb 87f
11:50am 2
mph
1015.1mb 87f
10:50am 2 7 mph 1015.2mb 87f
9:50am 2 4 mph 1015.2mb 83f
8:50am 2 9 mph 1015.3mb 79f
7:50am  -  2 mph 1015mb 73f
6:50am  -  2 mph 1014.6mb 71f
5:50am  -  mph 1014.5mb 71f
4:50am  -  2 mph 1013.9mb 71f
3:50am  -  2 mph 1013.9mb 71f
2:50am  -  2 mph 1013.7mb 71f
1:50am  -  mph 1013.7mb 72f
12:50am  -  mph 1013.8mb 72f
Wed 06/29 11:50pm  -  mph 1014.5mb 73f
10:50pm  -  2 mph 1014.7mb 73f
9:50pm  -  2 mph 1014.3mb 74f
8:50pm  -  mph 1014.2mb 74f
7:50pm  -  2 mph 1014.4mb 75f
6:50pm 2 4 mph 1014.5mb 76f
5:50pm 2 4 mph 1014.3mb 76f
4:50pm  -  2 mph 1014.7mb 77f
3:50pm 4 7 mph 1014.2mb 77f
2:50pm 2 4 mph 1013.9mb 88f
1:50pm 2 4 mph 1014.3mb 86f
12:50pm 2 7 mph 1014.7mb 86f
11:50am  -  4 mph 1015.3mb 83f
10:50am 2 4 mph 1015.3mb 80f
9:50am 2 4 mph 1015.6mb 79f
8:50am 2 4 mph 1015.6mb 76f
7:50am  -  2 mph 1015.2mb 74f
6:50am  -  4 mph 1014.4mb 73f
5:50am  -  2 mph 1014.1mb 73f
4:50am  -  mph 1013.7mb 73f
3:50am  -  2 mph 1013.4mb 73f
2:50am  -  mph 1014mb 73f
1:50am  -  2 mph 1014.7mb 73f
12:50am  -  mph 1014.8mb 73f
Tue 06/28 11:50pm  -  2 mph 1015mb 74f
10:50pm 2
mph
1015.1mb 74f
9:50pm 2
mph
1014.8mb 74f
8:50pm 2
mph
1014.5mb 74f
7:50pm 2 4 mph 1014.5mb 75f
6:50pm 4 9 mph 1014mb 75f
5:50pm 2 4 mph 1014.3mb 75f
4:50pm 7 16 mph 1014.8mb 76f
3:50pm 4 7 mph 1013.5mb 86f
2:50pm 4 9 mph 1013.6mb 90f
1:50pm 2 7 mph 1014.8mb 88f
12:50pm 2 4 mph 1015.9mb 88f
11:50am 2 4 mph 1016.4mb 86f
10:50am 2 4 mph 1016.6mb 85f
9:50am  -  2 mph 1016.6mb 79f
8:50am 2 4 mph 1016.9mb 76f
7:50am 2
mph
1016.5mb 75f
6:50am  -  2 mph 1015.9mb 74f
5:50am 4 7 mph 1015.7mb 74f
4:50am 2 4 mph 1015.4mb 74f
3:50am  -  mph 1014.8mb 75f
2:50am  -  2 mph 1014.7mb 76f
1:50am  -  mph 1015.1mb 76f
12:50am  -  2 mph 1016mb 76f
Mon 06/27 11:50pm 2
mph
1016.6mb 76f